2C8

Cavalier Municipal Airport

Cavalier, North Dakota, USA
METAR K2C8 211035Z AUTO 17017KT 9SM BKN032 M16/M21 A3012 RMK AO2
Observed Flight Rules
Jan-21 @ 10:35 UTC (7 minutes ago) Visual Flight Rules
Wind Visibility Clouds
170° at 17 knots 9 miles
  • Broken at 3,200' AGL
Temperatures Readings
Current -16°C / 3°F
Dewpoint -21°C / -6°F
Humidity 66%
Altimeter 30.12" Hg
Pressure 1020.02 hPa
Elevation 272
METAR K2C8 211035Z AUTO 17017KT 9SM BKN032 M16/M21 A3012 RMK AO2
Observed Flight Rules
Jan-21 @ 10:35 UTC
(7 minutes ago)
VFR
Wind Visibility
170° at 17 knots 9 miles
Clouds
  • Broken at 3,200' AGL
Temperature Dewpoint
-16°C / 3°F -21°C / -6°F
Humidity Altimeter Pressure
66% 30.12" Hg 1020.02 hPa